sensor_id;sensor_type;location;lat;lon;timestamp;P1;durP1;ratioP1;P2;durP2;ratioP2
7320;SDS011;3701;49.346;8.798;2022-07-19T00:02:10;3.40;;;2.40;;
7320;SDS011;3701;49.346;8.798;2022-07-19T00:04:36;2.87;;;2.40;;
7320;SDS011;3701;49.346;8.798;2022-07-19T00:07:01;4.27;;;2.07;;
7320;SDS011;3701;49.346;8.798;2022-07-19T00:09:29;3.70;;;2.60;;
7320;SDS011;3701;49.346;8.798;2022-07-19T00:11:55;6.30;;;2.30;;
7320;SDS011;3701;49.346;8.798;2022-07-19T00:14:20;2.80;;;2.50;;
7320;SDS011;3701;49.346;8.798;2022-07-19T00:16:46;3.10;;;2.20;;
7320;SDS011;3701;49.346;8.798;2022-07-19T00:19:11;2.43;;;2.00;;
7320;SDS011;3701;49.346;8.798;2022-07-19T00:21:39;3.60;;;2.47;;
7320;SDS011;3701;49.346;8.798;2022-07-19T00:24:04;2.93;;;2.30;;
7320;SDS011;3701;49.346;8.798;2022-07-19T00:26:30;2.80;;;2.30;;
7320;SDS011;3701;49.346;8.798;2022-07-19T00:28:58;3.80;;;2.53;;
7320;SDS011;3701;49.346;8.798;2022-07-19T00:31:25;2.60;;;2.20;;
7320;SDS011;3701;49.346;8.798;2022-07-19T00:33:54;2.63;;;2.40;;
7320;SDS011;3701;49.346;8.798;2022-07-19T00:36:21;3.07;;;2.77;;
7320;SDS011;3701;49.346;8.798;2022-07-19T00:38:46;2.47;;;2.27;;
7320;SDS011;3701;49.346;8.798;2022-07-19T00:41:14;4.57;;;2.80;;
7320;SDS011;3701;49.346;8.798;2022-07-19T00:43:40;3.00;;;2.40;;
7320;SDS011;3701;49.346;8.798;2022-07-19T00:46:15;3.57;;;2.57;;
7320;SDS011;3701;49.346;8.798;2022-07-19T00:48:44;3.77;;;2.10;;
7320;SDS011;3701;49.346;8.798;2022-07-19T00:51:11;4.40;;;2.57;;
7320;SDS011;3701;49.346;8.798;2022-07-19T00:53:40;5.83;;;2.40;;
7320;SDS011;3701;49.346;8.798;2022-07-19T00:56:08;2.40;;;2.20;;
7320;SDS011;3701;49.346;8.798;2022-07-19T00:58:36;4.13;;;2.87;;
7320;SDS011;3701;49.346;8.798;2022-07-19T01:01:05;5.00;;;2.53;;
7320;SDS011;3701;49.346;8.798;2022-07-19T01:03:36;2.73;;;2.53;;
7320;SDS011;3701;49.346;8.798;2022-07-19T01:06:03;4.73;;;2.60;;
7320;SDS011;3701;49.346;8.798;2022-07-19T01:08:30;2.90;;;2.40;;
7320;SDS011;3701;49.346;8.798;2022-07-19T01:10:55;4.73;;;2.67;;
7320;SDS011;3701;49.346;8.798;2022-07-19T01:13:21;6.20;;;2.60;;
7320;SDS011;3701;49.346;8.798;2022-07-19T01:15:53;4.50;;;2.80;;
7320;SDS011;3701;49.346;8.798;2022-07-19T01:18:20;2.80;;;2.30;;
7320;SDS011;3701;49.346;8.798;2022-07-19T01:20:49;5.77;;;2.33;;
7320;SDS011;3701;49.346;8.798;2022-07-19T01:23:16;3.60;;;2.43;;
7320;SDS011;3701;49.346;8.798;2022-07-19T01:25:43;3.50;;;2.70;;
7320;SDS011;3701;49.346;8.798;2022-07-19T01:28:09;3.10;;;2.40;;
7320;SDS011;3701;49.346;8.798;2022-07-19T01:30:34;2.80;;;2.30;;
7320;SDS011;3701;49.346;8.798;2022-07-19T01:33:01;4.70;;;2.73;;
7320;SDS011;3701;49.346;8.798;2022-07-19T01:35:27;4.73;;;2.87;;
7320;SDS011;3701;49.346;8.798;2022-07-19T01:37:55;7.83;;;2.87;;
7320;SDS011;3701;49.346;8.798;2022-07-19T01:40:25;3.17;;;2.60;;
7320;SDS011;3701;49.346;8.798;2022-07-19T01:42:51;3.13;;;2.80;;
7320;SDS011;3701;49.346;8.798;2022-07-19T01:45:19;4.67;;;2.40;;
7320;SDS011;3701;49.346;8.798;2022-07-19T01:47:50;6.30;;;2.80;;
7320;SDS011;3701;49.346;8.798;2022-07-19T01:50:17;3.00;;;2.70;;
7320;SDS011;3701;49.346;8.798;2022-07-19T01:52:43;3.10;;;2.70;;
7320;SDS011;3701;49.346;8.798;2022-07-19T01:55:16;4.23;;;2.90;;
7320;SDS011;3701;49.346;8.798;2022-07-19T01:57:44;4.50;;;2.63;;
7320;SDS011;3701;49.346;8.798;2022-07-19T02:00:12;3.13;;;2.70;;
7320;SDS011;3701;49.346;8.798;2022-07-19T02:02:38;2.77;;;2.50;;
7320;SDS011;3701;49.346;8.798;2022-07-19T02:05:03;6.93;;;2.30;;
7320;SDS011;3701;49.346;8.798;2022-07-19T02:07:29;3.93;;;2.73;;
7320;SDS011;3701;49.346;8.798;2022-07-19T02:09:56;5.03;;;2.80;;
7320;SDS011;3701;49.346;8.798;2022-07-19T02:12:26;8.07;;;3.07;;
7320;SDS011;3701;49.346;8.798;2022-07-19T02:14:54;2.70;;;2.50;;
7320;SDS011;3701;49.346;8.798;2022-07-19T02:17:23;5.07;;;3.00;;
7320;SDS011;3701;49.346;8.798;2022-07-19T02:19:49;4.00;;;2.53;;
7320;SDS011;3701;49.346;8.798;2022-07-19T02:22:14;3.83;;;2.50;;
7320;SDS011;3701;49.346;8.798;2022-07-19T02:24:40;4.10;;;2.77;;
7320;SDS011;3701;49.346;8.798;2022-07-19T02:27:08;4.93;;;2.70;;
7320;SDS011;3701;49.346;8.798;2022-07-19T02:29:36;5.13;;;2.83;;
7320;SDS011;3701;49.346;8.798;2022-07-19T02:32:01;8.60;;;2.80;;
7320;SDS011;3701;49.346;8.798;2022-07-19T02:34:26;3.73;;;2.67;;
7320;SDS011;3701;49.346;8.798;2022-07-19T02:36:52;6.60;;;2.73;;
7320;SDS011;3701;49.346;8.798;2022-07-19T02:39:17;4.37;;;2.80;;
7320;SDS011;3701;49.346;8.798;2022-07-19T02:41:42;3.20;;;2.90;;
7320;SDS011;3701;49.346;8.798;2022-07-19T02:44:08;2.77;;;2.50;;
7320;SDS011;3701;49.346;8.798;2022-07-19T02:46:35;5.23;;;2.70;;
7320;SDS011;3701;49.346;8.798;2022-07-19T02:49:01;3.07;;;2.70;;
7320;SDS011;3701;49.346;8.798;2022-07-19T02:51:28;3.50;;;2.63;;
7320;SDS011;3701;49.346;8.798;2022-07-19T02:53:58;3.93;;;2.87;;
7320;SDS011;3701;49.346;8.798;2022-07-19T02:56:24;2.77;;;2.13;;
7320;SDS011;3701;49.346;8.798;2022-07-19T02:58:49;3.73;;;2.50;;
7320;SDS011;3701;49.346;8.798;2022-07-19T03:01:17;4.47;;;2.97;;
7320;SDS011;3701;49.346;8.798;2022-07-19T03:03:42;7.47;;;2.87;;
7320;SDS011;3701;49.346;8.798;2022-07-19T03:06:14;5.27;;;3.00;;
7320;SDS011;3701;49.346;8.798;2022-07-19T03:08:42;4.50;;;2.53;;
7320;SDS011;3701;49.346;8.798;2022-07-19T03:11:07;3.43;;;2.87;;
7320;SDS011;3701;49.346;8.798;2022-07-19T03:13:37;3.70;;;2.70;;
7320;SDS011;3701;49.346;8.798;2022-07-19T03:16:03;3.30;;;2.60;;
7320;SDS011;3701;49.346;8.798;2022-07-19T03:18:33;5.20;;;2.53;;
7320;SDS011;3701;49.346;8.798;2022-07-19T03:21:01;5.03;;;2.43;;
7320;SDS011;3701;49.346;8.798;2022-07-19T03:23:30;3.80;;;3.27;;
7320;SDS011;3701;49.346;8.798;2022-07-19T03:25:56;3.00;;;2.60;;
7320;SDS011;3701;49.346;8.798;2022-07-19T03:28:22;7.70;;;3.17;;
7320;SDS011;3701;49.346;8.798;2022-07-19T03:30:50;3.07;;;2.70;;
7320;SDS011;3701;49.346;8.798;2022-07-19T03:33:17;6.53;;;2.80;;
7320;SDS011;3701;49.346;8.798;2022-07-19T03:35:43;7.43;;;2.50;;
7320;SDS011;3701;49.346;8.798;2022-07-19T03:38:12;3.37;;;2.90;;
7320;SDS011;3701;49.346;8.798;2022-07-19T03:40:42;3.40;;;3.00;;
7320;SDS011;3701;49.346;8.798;2022-07-19T03:43:08;5.00;;;2.70;;
7320;SDS011;3701;49.346;8.798;2022-07-19T03:45:35;5.23;;;3.00;;
7320;SDS011;3701;49.346;8.798;2022-07-19T03:48:01;3.93;;;2.60;;
7320;SDS011;3701;49.346;8.798;2022-07-19T03:50:30;10.90;;;3.30;;
7320;SDS011;3701;49.346;8.798;2022-07-19T03:52:56;2.97;;;2.73;;
7320;SDS011;3701;49.346;8.798;2022-07-19T03:55:23;4.30;;;2.97;;
7320;SDS011;3701;49.346;8.798;2022-07-19T03:57:53;4.90;;;2.90;;
7320;SDS011;3701;49.346;8.798;2022-07-19T04:00:21;3.30;;;3.00;;
7320;SDS011;3701;49.346;8.798;2022-07-19T04:02:49;3.77;;;2.50;;
7320;SDS011;3701;49.346;8.798;2022-07-19T04:05:14;3.30;;;2.90;;
7320;SDS011;3701;49.346;8.798;2022-07-19T04:07:40;3.07;;;2.77;;
7320;SDS011;3701;49.346;8.798;2022-07-19T04:10:05;5.03;;;3.10;;
7320;SDS011;3701;49.346;8.798;2022-07-19T04:12:35;4.00;;;3.20;;
7320;SDS011;3701;49.346;8.798;2022-07-19T04:15:01;3.20;;;2.63;;
7320;SDS011;3701;49.346;8.798;2022-07-19T04:17:29;4.87;;;2.70;;
7320;SDS011;3701;49.346;8.798;2022-07-19T04:19:54;3.43;;;2.90;;
7320;SDS011;3701;49.346;8.798;2022-07-19T04:22:19;3.37;;;3.00;;
7320;SDS011;3701;49.346;8.798;2022-07-19T04:24:45;4.30;;;2.80;;
7320;SDS011;3701;49.346;8.798;2022-07-19T04:27:10;4.70;;;2.90;;
7320;SDS011;3701;49.346;8.798;2022-07-19T04:29:37;4.73;;;3.20;;
7320;SDS011;3701;49.346;8.798;2022-07-19T04:32:05;4.40;;;2.50;;
7320;SDS011;3701;49.346;8.798;2022-07-19T04:34:31;3.90;;;2.80;;
7320;SDS011;3701;49.346;8.798;2022-07-19T04:36:57;3.50;;;2.60;;
7320;SDS011;3701;49.346;8.798;2022-07-19T04:39:22;5.33;;;2.83;;
7320;SDS011;3701;49.346;8.798;2022-07-19T04:41:47;3.17;;;2.83;;
7320;SDS011;3701;49.346;8.798;2022-07-19T04:44:13;4.00;;;2.73;;
7320;SDS011;3701;49.346;8.798;2022-07-19T04:46:38;3.70;;;2.73;;
7320;SDS011;3701;49.346;8.798;2022-07-19T04:49:03;5.10;;;3.03;;
7320;SDS011;3701;49.346;8.798;2022-07-19T04:51:29;3.87;;;3.13;;
7320;SDS011;3701;49.346;8.798;2022-07-19T04:53:56;4.93;;;3.27;;
7320;SDS011;3701;49.346;8.798;2022-07-19T04:56:24;5.47;;;2.93;;
7320;SDS011;3701;49.346;8.798;2022-07-19T04:58:49;2.70;;;2.40;;
7320;SDS011;3701;49.346;8.798;2022-07-19T05:01:17;3.97;;;2.57;;
7320;SDS011;3701;49.346;8.798;2022-07-19T05:03:42;2.40;;;2.20;;
7320;SDS011;3701;49.346;8.798;2022-07-19T05:06:10;3.47;;;2.30;;
7320;SDS011;3701;49.346;8.798;2022-07-19T05:08:38;5.47;;;2.73;;
7320;SDS011;3701;49.346;8.798;2022-07-19T05:11:03;3.43;;;2.00;;
7320;SDS011;3701;49.346;8.798;2022-07-19T05:13:32;4.80;;;2.10;;
7320;SDS011;3701;49.346;8.798;2022-07-19T05:15:57;3.37;;;2.00;;
7320;SDS011;3701;49.346;8.798;2022-07-19T05:18:27;3.27;;;2.30;;
7320;SDS011;3701;49.346;8.798;2022-07-19T05:20:55;3.57;;;2.43;;
7320;SDS011;3701;49.346;8.798;2022-07-19T05:23:20;3.53;;;2.10;;
7320;SDS011;3701;49.346;8.798;2022-07-19T05:25:46;6.43;;;2.57;;
7320;SDS011;3701;49.346;8.798;2022-07-19T05:28:11;10.40;;;2.60;;
7320;SDS011;3701;49.346;8.798;2022-07-19T05:30:36;2.20;;;2.10;;
7320;SDS011;3701;49.346;8.798;2022-07-19T05:33:02;3.53;;;2.40;;
7320;SDS011;3701;49.346;8.798;2022-07-19T05:35:27;4.07;;;2.67;;
7320;SDS011;3701;49.346;8.798;2022-07-19T05:37:55;11.13;;;2.90;;
7320;SDS011;3701;49.346;8.798;2022-07-19T05:40:22;4.23;;;2.30;;
7320;SDS011;3701;49.346;8.798;2022-07-19T05:42:50;4.43;;;1.83;;
7320;SDS011;3701;49.346;8.798;2022-07-19T05:45:17;5.97;;;2.40;;
7320;SDS011;3701;49.346;8.798;2022-07-19T05:47:43;7.80;;;2.13;;
7320;SDS011;3701;49.346;8.798;2022-07-19T05:50:11;5.93;;;1.90;;
7320;SDS011;3701;49.346;8.798;2022-07-19T05:52:36;3.60;;;2.20;;
7320;SDS011;3701;49.346;8.798;2022-07-19T05:55:05;3.53;;;2.10;;
7320;SDS011;3701;49.346;8.798;2022-07-19T05:57:31;2.40;;;2.20;;
7320;SDS011;3701;49.346;8.798;2022-07-19T05:59:56;3.30;;;2.10;;
7320;SDS011;3701;49.346;8.798;2022-07-19T06:02:22;3.40;;;2.20;;
7320;SDS011;3701;49.346;8.798;2022-07-19T06:04:50;5.63;;;2.33;;
7320;SDS011;3701;49.346;8.798;2022-07-19T06:07:15;2.40;;;2.20;;
7320;SDS011;3701;49.346;8.798;2022-07-19T06:09:40;4.40;;;2.53;;
7320;SDS011;3701;49.346;8.798;2022-07-19T06:12:08;2.70;;;2.13;;
7320;SDS011;3701;49.346;8.798;2022-07-19T06:14:34;3.37;;;2.20;;
7320;SDS011;3701;49.346;8.798;2022-07-19T06:17:03;3.10;;;2.00;;
7320;SDS011;3701;49.346;8.798;2022-07-19T06:19:32;4.03;;;2.30;;
7320;SDS011;3701;49.346;8.798;2022-07-19T06:22:00;4.30;;;2.23;;
7320;SDS011;3701;49.346;8.798;2022-07-19T06:24:27;2.77;;;2.00;;
7320;SDS011;3701;49.346;8.798;2022-07-19T06:26:56;3.30;;;1.93;;
7320;SDS011;3701;49.346;8.798;2022-07-19T06:29:21;6.67;;;2.20;;
7320;SDS011;3701;49.346;8.798;2022-07-19T06:31:46;6.07;;;1.70;;
7320;SDS011;3701;49.346;8.798;2022-07-19T06:34:16;2.23;;;2.00;;
7320;SDS011;3701;49.346;8.798;2022-07-19T06:36:41;5.10;;;2.10;;
7320;SDS011;3701;49.346;8.798;2022-07-19T06:39:07;3.77;;;2.33;;
7320;SDS011;3701;49.346;8.798;2022-07-19T06:41:32;9.33;;;2.10;;
7320;SDS011;3701;49.346;8.798;2022-07-19T06:43:57;4.90;;;1.93;;
7320;SDS011;3701;49.346;8.798;2022-07-19T06:46:23;2.60;;;1.97;;
7320;SDS011;3701;49.346;8.798;2022-07-19T06:48:48;3.60;;;2.00;;
7320;SDS011;3701;49.346;8.798;2022-07-19T06:51:13;2.83;;;1.53;;
7320;SDS011;3701;49.346;8.798;2022-07-19T06:53:40;2.83;;;2.30;;
7320;SDS011;3701;49.346;8.798;2022-07-19T06:56:05;5.20;;;2.00;;
7320;SDS011;3701;49.346;8.798;2022-07-19T06:58:36;4.50;;;1.77;;
7320;SDS011;3701;49.346;8.798;2022-07-19T07:01:01;2.17;;;1.93;;
7320;SDS011;3701;49.346;8.798;2022-07-19T07:03:28;5.80;;;1.83;;
7320;SDS011;3701;49.346;8.798;2022-07-19T07:05:53;2.30;;;1.80;;
7320;SDS011;3701;49.346;8.798;2022-07-19T07:08:19;2.43;;;1.70;;
7320;SDS011;3701;49.346;8.798;2022-07-19T07:10:47;3.70;;;1.50;;
7320;SDS011;3701;49.346;8.798;2022-07-19T07:13:15;2.10;;;1.52;;
7320;SDS011;3701;49.346;8.798;2022-07-19T07:15:40;2.47;;;1.70;;
7320;SDS011;3701;49.346;8.798;2022-07-19T07:18:08;2.40;;;1.85;;
7320;SDS011;3701;49.346;8.798;2022-07-19T07:20:36;2.13;;;1.80;;
7320;SDS011;3701;49.346;8.798;2022-07-19T07:23:03;3.30;;;1.70;;
7320;SDS011;3701;49.346;8.798;2022-07-19T07:25:31;3.15;;;1.65;;
7320;SDS011;3701;49.346;8.798;2022-07-19T07:27:57;2.38;;;1.70;;
7320;SDS011;3701;49.346;8.798;2022-07-19T07:30:22;2.53;;;1.52;;
7320;SDS011;3701;49.346;8.798;2022-07-19T07:32:47;3.58;;;1.92;;
7320;SDS011;3701;49.346;8.798;2022-07-19T07:35:13;2.22;;;1.48;;
7320;SDS011;3701;49.346;8.798;2022-07-19T07:37:38;5.82;;;1.60;;
7320;SDS011;3701;49.346;8.798;2022-07-19T07:40:03;1.83;;;1.70;;
7320;SDS011;3701;49.346;8.798;2022-07-19T07:42:32;1.95;;;1.35;;
7320;SDS011;3701;49.346;8.798;2022-07-19T07:44:58;2.08;;;1.60;;
7320;SDS011;3701;49.346;8.798;2022-07-19T07:47:25;1.83;;;1.50;;
7320;SDS011;3701;49.346;8.798;2022-07-19T07:49:52;3.50;;;1.30;;
7320;SDS011;3701;49.346;8.798;2022-07-19T07:52:22;3.85;;;1.80;;
7320;SDS011;3701;49.346;8.798;2022-07-19T07:54:50;1.63;;;1.13;;
7320;SDS011;3701;49.346;8.798;2022-07-19T07:57:17;1.80;;;1.30;;
7320;SDS011;3701;49.346;8.798;2022-07-19T07:59:43;2.65;;;1.67;;
7320;SDS011;3701;49.346;8.798;2022-07-19T08:02:08;5.55;;;1.80;;
7320;SDS011;3701;49.346;8.798;2022-07-19T08:04:36;7.80;;;1.60;;
7320;SDS011;3701;49.346;8.798;2022-07-19T08:07:01;2.95;;;1.60;;
7320;SDS011;3701;49.346;8.798;2022-07-19T08:09:26;3.10;;;1.40;;
7320;SDS011;3701;49.346;8.798;2022-07-19T08:11:55;3.03;;;1.55;;
7320;SDS011;3701;49.346;8.798;2022-07-19T08:14:21;1.90;;;1.52;;
7320;SDS011;3701;49.346;8.798;2022-07-19T08:16:46;1.92;;;1.55;;
7320;SDS011;3701;49.346;8.798;2022-07-19T08:19:11;3.35;;;1.52;;
7320;SDS011;3701;49.346;8.798;2022-07-19T08:21:39;1.70;;;1.58;;
7320;SDS011;3701;49.346;8.798;2022-07-19T08:24:04;1.48;;;1.38;;
7320;SDS011;3701;49.346;8.798;2022-07-19T08:26:30;3.28;;;1.48;;
7320;SDS011;3701;49.346;8.798;2022-07-19T08:28:56;1.77;;;1.63;;
7320;SDS011;3701;49.346;8.798;2022-07-19T08:31:24;4.07;;;1.33;;
7320;SDS011;3701;49.346;8.798;2022-07-19T08:33:51;1.60;;;1.48;;
7320;SDS011;3701;49.346;8.798;2022-07-19T08:36:17;2.38;;;1.55;;
7320;SDS011;3701;49.346;8.798;2022-07-19T08:38:44;1.65;;;1.55;;
7320;SDS011;3701;49.346;8.798;2022-07-19T08:41:11;1.77;;;1.40;;
7320;SDS011;3701;49.346;8.798;2022-07-19T08:43:38;1.70;;;1.27;;
7320;SDS011;3701;49.346;8.798;2022-07-19T08:46:03;2.38;;;1.30;;
7320;SDS011;3701;49.346;8.798;2022-07-19T08:48:33;2.88;;;1.10;;
7320;SDS011;3701;49.346;8.798;2022-07-19T08:51:00;2.80;;;1.40;;
7320;SDS011;3701;49.346;8.798;2022-07-19T08:53:30;7.53;;;1.20;;
7320;SDS011;3701;49.346;8.798;2022-07-19T08:55:59;1.40;;;1.30;;
7320;SDS011;3701;49.346;8.798;2022-07-19T08:58:45;1.45;;;1.20;;
7320;SDS011;3701;49.346;8.798;2022-07-19T09:01:12;1.30;;;1.20;;
7320;SDS011;3701;49.346;8.798;2022-07-19T09:04:01;1.30;;;1.20;;
7320;SDS011;3701;49.346;8.798;2022-07-19T09:06:41;2.30;;;1.67;;
7320;SDS011;3701;49.346;8.798;2022-07-19T09:09:14;1.38;;;1.27;;
7320;SDS011;3701;49.346;8.798;2022-07-19T09:11:42;1.70;;;1.40;;
7320;SDS011;3701;49.346;8.798;2022-07-19T09:14:14;1.45;;;1.30;;
7320;SDS011;3701;49.346;8.798;2022-07-19T09:19:22;1.80;;;1.48;;
7320;SDS011;3701;49.346;8.798;2022-07-19T09:21:56;1.65;;;1.55;;
7320;SDS011;3701;49.346;8.798;2022-07-19T09:24:26;1.77;;;1.40;;
7320;SDS011;3701;49.346;8.798;2022-07-19T09:26:59;1.73;;;1.40;;
7320;SDS011;3701;49.346;8.798;2022-07-19T09:29:32;2.67;;;1.27;;
7320;SDS011;3701;49.346;8.798;2022-07-19T09:32:04;2.67;;;1.50;;
7320;SDS011;3701;49.346;8.798;2022-07-19T09:34:36;2.38;;;1.30;;
7320;SDS011;3701;49.346;8.798;2022-07-19T09:39:48;2.22;;;1.38;;
7320;SDS011;3701;49.346;8.798;2022-07-19T09:42:19;2.22;;;1.30;;
7320;SDS011;3701;49.346;8.798;2022-07-19T09:44:55;4.75;;;1.42;;
7320;SDS011;3701;49.346;8.798;2022-07-19T09:47:32;2.90;;;1.55;;
7320;SDS011;3701;49.346;8.798;2022-07-19T09:49:59;3.45;;;1.23;;
7320;SDS011;3701;49.346;8.798;2022-07-19T09:52:26;2.53;;;1.35;;
7320;SDS011;3701;49.346;8.798;2022-07-19T09:54:54;2.13;;;1.55;;
7320;SDS011;3701;49.346;8.798;2022-07-19T09:57:23;2.42;;;1.40;;
7320;SDS011;3701;49.346;8.798;2022-07-19T09:59:52;2.63;;;1.35;;
7320;SDS011;3701;49.346;8.798;2022-07-19T10:02:21;8.93;;;1.52;;
7320;SDS011;3701;49.346;8.798;2022-07-19T10:04:50;1.65;;;1.30;;
7320;SDS011;3701;49.346;8.798;2022-07-19T10:07:16;4.20;;;1.10;;
7320;SDS011;3701;49.346;8.798;2022-07-19T10:09:45;1.23;;;1.13;;
7320;SDS011;3701;49.346;8.798;2022-07-19T10:12:11;2.88;;;1.73;;
7320;SDS011;3701;49.346;8.798;2022-07-19T10:14:37;1.58;;;1.27;;
7320;SDS011;3701;49.346;8.798;2022-07-19T10:20:06;1.40;;;1.30;;
7320;SDS011;3701;49.346;8.798;2022-07-19T10:22:33;1.50;;;1.40;;
7320;SDS011;3701;49.346;8.798;2022-07-19T10:27:36;1.60;;;1.25;;
7320;SDS011;3701;49.346;8.798;2022-07-19T10:32:34;2.13;;;1.38;;
7320;SDS011;3701;49.346;8.798;2022-07-19T10:37:47;4.18;;;1.42;;
7320;SDS011;3701;49.346;8.798;2022-07-19T10:43:17;1.92;;;1.48;;
7320;SDS011;3701;49.346;8.798;2022-07-19T10:51:26;1.42;;;1.33;;
7320;SDS011;3701;49.346;8.798;2022-07-19T10:56:35;2.53;;;1.30;;
7320;SDS011;3701;49.346;8.798;2022-07-19T10:59:03;2.28;;;1.48;;
7320;SDS011;3701;49.346;8.798;2022-07-19T11:01:32;2.92;;;1.80;;
7320;SDS011;3701;49.346;8.798;2022-07-19T11:07:08;3.97;;;1.65;;
7320;SDS011;3701;49.346;8.798;2022-07-19T11:09:41;2.65;;;1.35;;
7320;SDS011;3701;49.346;8.798;2022-07-19T11:14:46;1.55;;;1.30;;
7320;SDS011;3701;49.346;8.798;2022-07-19T11:17:12;2.15;;;1.58;;
7320;SDS011;3701;49.346;8.798;2022-07-19T11:19:37;3.92;;;1.85;;
7320;SDS011;3701;49.346;8.798;2022-07-19T11:22:23;2.03;;;1.38;;
7320;SDS011;3701;49.346;8.798;2022-07-19T11:24:51;2.78;;;1.38;;
7320;SDS011;3701;49.346;8.798;2022-07-19T11:27:19;2.35;;;1.45;;
7320;SDS011;3701;49.346;8.798;2022-07-19T11:29:58;2.33;;;1.25;;
7320;SDS011;3701;49.346;8.798;2022-07-19T11:32:25;1.83;;;1.30;;
7320;SDS011;3701;49.346;8.798;2022-07-19T11:35:04;5.78;;;1.40;;
7320;SDS011;3701;49.346;8.798;2022-07-19T11:37:32;1.73;;;1.63;;
7320;SDS011;3701;49.346;8.798;2022-07-19T11:40:03;2.92;;;1.23;;
7320;SDS011;3701;49.346;8.798;2022-07-19T11:45:12;3.55;;;1.45;;
7320;SDS011;3701;49.346;8.798;2022-07-19T11:47:51;2.28;;;1.50;;
7320;SDS011;3701;49.346;8.798;2022-07-19T11:50:20;2.55;;;1.60;;
7320;SDS011;3701;49.346;8.798;2022-07-19T11:52:54;3.15;;;1.65;;
7320;SDS011;3701;49.346;8.798;2022-07-19T11:55:28;2.22;;;1.55;;
7320;SDS011;3701;49.346;8.798;2022-07-19T11:58:07;2.70;;;1.50;;
7320;SDS011;3701;49.346;8.798;2022-07-19T12:00:36;1.92;;;1.60;;
7320;SDS011;3701;49.346;8.798;2022-07-19T12:03:03;1.70;;;1.42;;
7320;SDS011;3701;49.346;8.798;2022-07-19T12:05:34;2.90;;;1.58;;
7320;SDS011;3701;49.346;8.798;2022-07-19T12:08:03;2.75;;;1.73;;
7320;SDS011;3701;49.346;8.798;2022-07-19T12:10:39;2.53;;;1.65;;
7320;SDS011;3701;49.346;8.798;2022-07-19T12:13:27;3.15;;;1.50;;
7320;SDS011;3701;49.346;8.798;2022-07-19T12:15:57;1.50;;;1.40;;
7320;SDS011;3701;49.346;8.798;2022-07-19T12:26:42;3.45;;;1.63;;
7320;SDS011;3701;49.346;8.798;2022-07-19T12:32:40;4.72;;;1.60;;
7320;SDS011;3701;49.346;8.798;2022-07-19T12:37:37;2.33;;;1.70;;
7320;SDS011;3701;49.346;8.798;2022-07-19T12:40:07;3.90;;;1.45;;
7320;SDS011;3701;49.346;8.798;2022-07-19T12:45:06;2.58;;;1.80;;
7320;SDS011;3701;49.346;8.798;2022-07-19T12:47:35;3.33;;;2.25;;
7320;SDS011;3701;49.346;8.798;2022-07-19T12:50:03;5.35;;;1.70;;
7320;SDS011;3701;49.346;8.798;2022-07-19T12:52:29;1.70;;;1.60;;
7320;SDS011;3701;49.346;8.798;2022-07-19T12:54:55;3.15;;;1.70;;
7320;SDS011;3701;49.346;8.798;2022-07-19T12:57:23;2.25;;;1.67;;
7320;SDS011;3701;49.346;8.798;2022-07-19T12:59:48;2.15;;;1.90;;
7320;SDS011;3701;49.346;8.798;2022-07-19T13:02:16;2.13;;;1.80;;
7320;SDS011;3701;49.346;8.798;2022-07-19T13:04:44;4.47;;;2.17;;
7320;SDS011;3701;49.346;8.798;2022-07-19T13:07:11;4.15;;;1.80;;
7320;SDS011;3701;49.346;8.798;2022-07-19T13:09:38;3.10;;;1.67;;
7320;SDS011;3701;49.346;8.798;2022-07-19T13:12:06;4.13;;;2.10;;
7320;SDS011;3701;49.346;8.798;2022-07-19T13:14:35;2.65;;;1.83;;
7320;SDS011;3701;49.346;8.798;2022-07-19T13:17:02;2.75;;;1.80;;
7320;SDS011;3701;49.346;8.798;2022-07-19T13:19:28;3.53;;;1.67;;
7320;SDS011;3701;49.346;8.798;2022-07-19T13:21:56;2.40;;;1.90;;
7320;SDS011;3701;49.346;8.798;2022-07-19T13:24:23;2.13;;;2.03;;
7320;SDS011;3701;49.346;8.798;2022-07-19T13:26:49;9.07;;;1.90;;
7320;SDS011;3701;49.346;8.798;2022-07-19T13:29:16;4.82;;;1.85;;
7320;SDS011;3701;49.346;8.798;2022-07-19T13:31:44;2.45;;;1.70;;
7320;SDS011;3701;49.346;8.798;2022-07-19T13:34:14;3.38;;;2.05;;
7320;SDS011;3701;49.346;8.798;2022-07-19T13:36:41;2.78;;;1.80;;
7320;SDS011;3701;49.346;8.798;2022-07-19T13:39:07;4.63;;;2.28;;
7320;SDS011;3701;49.346;8.798;2022-07-19T13:41:37;3.05;;;2.33;;
7320;SDS011;3701;49.346;8.798;2022-07-19T13:44:06;3.33;;;2.35;;
7320;SDS011;3701;49.346;8.798;2022-07-19T13:46:31;2.45;;;2.25;;
7320;SDS011;3701;49.346;8.798;2022-07-19T13:48:58;2.25;;;2.05;;
7320;SDS011;3701;49.346;8.798;2022-07-19T13:51:24;2.35;;;2.15;;
7320;SDS011;3701;49.346;8.798;2022-07-19T13:53:49;5.82;;;2.20;;
7320;SDS011;3701;49.346;8.798;2022-07-19T13:56:17;2.90;;;2.28;;
7320;SDS011;3701;49.346;8.798;2022-07-19T13:58:43;6.18;;;2.53;;
7320;SDS011;3701;49.346;8.798;2022-07-19T14:01:13;3.63;;;2.17;;
7320;SDS011;3701;49.346;8.798;2022-07-19T14:03:41;2.97;;;2.40;;
7320;SDS011;3701;49.346;8.798;2022-07-19T14:06:06;4.18;;;2.38;;
7320;SDS011;3701;49.346;8.798;2022-07-19T14:08:35;2.30;;;2.10;;
7320;SDS011;3701;49.346;8.798;2022-07-19T14:11:02;2.90;;;2.33;;
7320;SDS011;3701;49.346;8.798;2022-07-19T14:13:28;3.42;;;2.60;;
7320;SDS011;3701;49.346;8.798;2022-07-19T14:15:53;2.15;;;1.95;;
7320;SDS011;3701;49.346;8.798;2022-07-19T14:18:22;3.40;;;2.33;;
7320;SDS011;3701;49.346;8.798;2022-07-19T14:20:50;3.55;;;2.45;;
7320;SDS011;3701;49.346;8.798;2022-07-19T14:23:18;2.15;;;1.83;;
7320;SDS011;3701;49.346;8.798;2022-07-19T14:25:45;4.88;;;2.47;;
7320;SDS011;3701;49.346;8.798;2022-07-19T14:28:13;2.83;;;2.10;;
7320;SDS011;3701;49.346;8.798;2022-07-19T14:30:42;4.47;;;2.63;;
7320;SDS011;3701;49.346;8.798;2022-07-19T14:33:08;4.25;;;2.28;;
7320;SDS011;3701;49.346;8.798;2022-07-19T14:35:36;2.60;;;2.40;;
7320;SDS011;3701;49.346;8.798;2022-07-19T14:38:04;3.38;;;2.13;;
7320;SDS011;3701;49.346;8.798;2022-07-19T14:40:29;3.53;;;2.35;;
7320;SDS011;3701;49.346;8.798;2022-07-19T14:42:55;5.18;;;2.70;;
7320;SDS011;3701;49.346;8.798;2022-07-19T14:45:23;3.13;;;2.83;;
7320;SDS011;3701;49.346;8.798;2022-07-19T14:47:51;2.92;;;2.72;;
7320;SDS011;3701;49.346;8.798;2022-07-19T14:50:21;3.80;;;2.60;;
7320;SDS011;3701;49.346;8.798;2022-07-19T14:52:49;2.47;;;2.08;;
7320;SDS011;3701;49.346;8.798;2022-07-19T14:55:20;3.45;;;2.55;;
7320;SDS011;3701;49.346;8.798;2022-07-19T14:57:47;6.78;;;2.30;;
7320;SDS011;3701;49.346;8.798;2022-07-19T15:00:13;2.40;;;2.20;;
7320;SDS011;3701;49.346;8.798;2022-07-19T15:02:41;4.03;;;2.33;;
7320;SDS011;3701;49.346;8.798;2022-07-19T15:05:11;4.22;;;2.05;;
7320;SDS011;3701;49.346;8.798;2022-07-19T15:07:39;2.40;;;2.20;;
7320;SDS011;3701;49.346;8.798;2022-07-19T15:10:04;2.53;;;1.98;;
7320;SDS011;3701;49.346;8.798;2022-07-19T15:12:33;8.18;;;2.22;;
7320;SDS011;3701;49.346;8.798;2022-07-19T15:15:00;2.67;;;1.90;;
7320;SDS011;3701;49.346;8.798;2022-07-19T15:17:28;5.15;;;1.98;;
7320;SDS011;3701;49.346;8.798;2022-07-19T15:19:56;8.20;;;2.53;;
7320;SDS011;3701;49.346;8.798;2022-07-19T15:22:21;3.22;;;2.00;;
7320;SDS011;3701;49.346;8.798;2022-07-19T15:24:49;3.33;;;2.17;;
7320;SDS011;3701;49.346;8.798;2022-07-19T15:27:15;3.33;;;1.92;;
7320;SDS011;3701;49.346;8.798;2022-07-19T15:29:43;2.08;;;1.85;;
7320;SDS011;3701;49.346;8.798;2022-07-19T15:32:09;5.97;;;1.90;;
7320;SDS011;3701;49.346;8.798;2022-07-19T15:34:38;5.65;;;2.38;;
7320;SDS011;3701;49.346;8.798;2022-07-19T15:37:03;2.75;;;1.73;;
7320;SDS011;3701;49.346;8.798;2022-07-19T15:39:33;4.03;;;2.30;;
7320;SDS011;3701;49.346;8.798;2022-07-19T15:41:59;2.03;;;1.80;;
7320;SDS011;3701;49.346;8.798;2022-07-19T15:44:28;2.58;;;2.33;;
7320;SDS011;3701;49.346;8.798;2022-07-19T15:46:54;2.60;;;1.90;;
7320;SDS011;3701;49.346;8.798;2022-07-19T15:49:24;3.38;;;2.40;;
7320;SDS011;3701;49.346;8.798;2022-07-19T15:51:49;4.70;;;2.10;;
7320;SDS011;3701;49.346;8.798;2022-07-19T15:54:17;3.70;;;2.30;;
7320;SDS011;3701;49.346;8.798;2022-07-19T15:56:43;4.22;;;2.33;;
7320;SDS011;3701;49.346;8.798;2022-07-19T15:59:10;4.30;;;1.90;;
7320;SDS011;3701;49.346;8.798;2022-07-19T16:01:35;5.00;;;2.05;;
7320;SDS011;3701;49.346;8.798;2022-07-19T16:04:03;4.90;;;2.38;;
7320;SDS011;3701;49.346;8.798;2022-07-19T16:06:31;2.97;;;2.67;;
7320;SDS011;3701;49.346;8.798;2022-07-19T16:08:57;4.93;;;2.58;;
7320;SDS011;3701;49.346;8.798;2022-07-19T16:11:22;4.57;;;2.10;;